Pleasant Lake, Michigan
Current Conditions -  °F | °C
As of 8:56 AM on Thursday 30 Oct 2014 (Local Time) from KJXN Reporting Station
Overcast Overcast  
Wind Chill: 33°   Ceiling: 3900
Heat Index: 33°   Visibility: 10mi
Dew Point: 32°   Wind: 0mph
Humidity: 96%   Direction: NA
Pressure: 30.13"   Gusts: NA
Location:  42.38°N, 84.35°W
Report Text: KJXN 301256Z 00000KT 10SM OVC039 01/00 A3013 RMK AO2 SLP213 T00060000
Loading
Personal Weather Stations






























Interactive Weather Map
Tropical Storm Tracking
New forecast layout! Learn more

10-Day Weather Forecast

Advertisements
Track Severe Weather on mobile